Time;durP1;ratioP1;P1;durP2;ratioP2;P2;SDS_P1;SDS_P2;PMS_P1;PMS_P2;Temp;Humidity;BMP_temperature;BMP_pressure;BME280_temperature;BME280_humidity;BME280_pressure;Samples;Min_cycle;Max_cycle;Signal;HPM_P1;HPM_P2
2023/07/02 00:01:56;;;;;;;;;;;16.70;99.90;;;;;;5029614;28;19994;-73
2023/07/02 00:04:21;;;;;;;;;;;16.70;99.90;;;;;;5006980;28;20391;-74
2023/07/02 00:06:48;;;;;;;;;;;16.70;99.90;;;;;;5007635;28;19921;-73
2023/07/02 00:09:15;;;;;;;;;;;16.60;99.90;;;;;;5029994;28;19933;-73
2023/07/02 00:11:46;;;;;;;;;;;16.60;99.90;;;;;;5035863;28;20445;-75
2023/07/02 00:14:13;;;;;;;;;;;16.60;99.90;;;;;;5008054;28;19951;-73
2023/07/02 00:16:41;;;;;;;;;;;16.60;99.90;;;;;;5053196;28;20042;-73
2023/07/02 00:19:06;;;;;;;;;;;16.60;99.90;;;;;;5039841;28;20394;-73
2023/07/02 00:21:33;;;;;;;;;;;16.60;99.90;;;;;;5007477;28;19924;-72
2023/07/02 00:24:00;;;;;;;;;;;16.60;99.90;;;;;;5007662;28;19925;-73
2023/07/02 00:26:26;;;;;;;;;;;16.60;99.90;;;;;;5019786;28;20411;-73
2023/07/02 00:28:57;;;;;;;;;;;16.60;99.90;;;;;;5010605;28;19932;-73
2023/07/02 00:31:23;;;;;;;;;;;16.60;99.90;;;;;;5029144;28;20358;-72
2023/07/02 00:33:53;;;;;;;;;;;16.60;99.90;;;;;;5039690;28;19920;-72
2023/07/02 00:36:19;;;;;;;;;;;16.60;99.90;;;;;;5044816;28;20016;-73
2023/07/02 00:38:48;;;;;;;;;;;16.60;99.90;;;;;;5041480;28;19921;-74
2023/07/02 00:41:15;;;;;;;;;;;16.50;99.90;;;;;;5036968;28;20376;-74
2023/07/02 00:43:45;;;;;;;;;;;16.60;99.90;;;;;;5020398;28;19924;-73
2023/07/02 00:46:19;;;;;;;;;;;16.60;99.90;;;;;;5029015;28;19920;-73
2023/07/02 00:48:52;;;;;;;;;;;16.60;99.90;;;;;;5037280;28;20039;-73
2023/07/02 00:51:19;;;;;;;;;;;16.60;99.90;;;;;;5006546;28;20374;-72
2023/07/02 00:53:45;;;;;;;;;;;16.60;99.90;;;;;;5054675;28;19925;-73
2023/07/02 00:56:11;;;;;;;;;;;16.60;99.90;;;;;;5038185;28;19925;-73
2023/07/02 00:58:48;;;;;;;;;;;16.50;99.90;;;;;;5010894;28;19947;-74
2023/07/02 01:01:15;;;;;;;;;;;16.50;99.90;;;;;;5027862;28;19928;-74
2023/07/02 01:03:52;;;;;;;;;;;16.50;99.90;;;;;;5028272;28;19978;-72
2023/07/02 01:06:19;;;;;;;;;;;16.40;99.90;;;;;;5023221;28;19931;-73
2023/07/02 01:08:45;;;;;;;;;;;16.40;99.90;;;;;;5025958;28;19929;-73
2023/07/02 01:11:13;;;;;;;;;;;16.40;99.90;;;;;;5021869;28;20302;-74
2023/07/02 01:13:39;;;;;;;;;;;16.30;99.90;;;;;;5026912;28;19978;-73
2023/07/02 01:16:05;;;;;;;;;;;16.40;99.90;;;;;;5026962;28;19920;-74
2023/07/02 01:18:30;;;;;;;;;;;16.30;99.90;;;;;;5026195;28;19982;-73
2023/07/02 01:20:56;;;;;;;;;;;16.30;99.90;;;;;;5041710;28;20007;-74
2023/07/02 01:23:22;;;;;;;;;;;16.30;99.90;;;;;;5025192;28;19925;-73
2023/07/02 01:25:47;;;;;;;;;;;16.30;99.90;;;;;;5027700;28;20003;-73
2023/07/02 01:28:13;;;;;;;;;;;16.20;99.90;;;;;;5026881;28;19925;-72
2023/07/02 01:30:40;;;;;;;;;;;16.30;99.90;;;;;;5025500;28;20020;-73
2023/07/02 01:33:06;;;;;;;;;;;16.30;99.90;;;;;;5018452;28;20533;-73
2023/07/02 01:35:32;;;;;;;;;;;16.20;99.90;;;;;;5011203;28;19925;-73
2023/07/02 01:37:59;;;;;;;;;;;16.20;99.90;;;;;;5026153;28;19940;-74
2023/07/02 01:40:25;;;;;;;;;;;16.20;99.90;;;;;;5026895;28;19920;-73
2023/07/02 01:42:50;;;;;;;;;;;16.20;99.90;;;;;;5025841;28;19921;-74
2023/07/02 01:45:16;;;;;;;;;;;16.20;99.90;;;;;;5011159;28;19925;-72
2023/07/02 01:47:41;;;;;;;;;;;16.20;99.90;;;;;;5026666;28;20024;-73
2023/07/02 01:50:07;;;;;;;;;;;16.20;99.90;;;;;;5026922;28;20530;-72
2023/07/02 01:52:33;;;;;;;;;;;16.10;99.90;;;;;;5006547;28;20263;-73
2023/07/02 01:55:00;;;;;;;;;;;16.10;99.90;;;;;;5027437;28;19964;-73
2023/07/02 01:57:30;;;;;;;;;;;16.10;99.90;;;;;;5037622;28;20335;-74
2023/07/02 01:59:56;;;;;;;;;;;16.10;99.90;;;;;;5017723;28;19929;-73
2023/07/02 02:02:22;;;;;;;;;;;16.10;99.90;;;;;;5025377;28;19998;-73
2023/07/02 02:04:48;;;;;;;;;;;16.10;99.90;;;;;;5021306;28;20368;-73
2023/07/02 02:07:13;;;;;;;;;;;16.10;99.90;;;;;;4991795;28;20012;-75
2023/07/02 02:09:46;;;;;;;;;;;16.10;99.90;;;;;;5020698;28;21358;-72
2023/07/02 02:12:14;;;;;;;;;;;16.10;99.90;;;;;;5004593;28;20386;-73
2023/07/02 02:14:39;;;;;;;;;;;16.10;99.90;;;;;;4994510;28;19921;-73
2023/07/02 02:17:05;;;;;;;;;;;16.10;99.90;;;;;;5020220;28;20406;-71
2023/07/02 02:19:31;;;;;;;;;;;16.10;99.90;;;;;;5025927;28;20029;-73
2023/07/02 02:22:00;;;;;;;;;;;16.00;99.90;;;;;;5026464;28;19925;-72
2023/07/02 02:24:25;;;;;;;;;;;16.10;99.90;;;;;;5003519;28;19925;-73
2023/07/02 02:26:51;;;;;;;;;;;16.10;99.90;;;;;;5043563;28;20593;-74
2023/07/02 02:29:16;;;;;;;;;;;16.10;99.90;;;;;;5027529;28;19925;-73
2023/07/02 02:31:43;;;;;;;;;;;16.10;99.90;;;;;;5006778;28;19925;-74
2023/07/02 02:34:09;;;;;;;;;;;16.10;99.90;;;;;;5042993;28;19932;-73
2023/07/02 02:36:34;;;;;;;;;;;16.10;99.90;;;;;;5021672;28;20358;-72
2023/07/02 02:39:01;;;;;;;;;;;16.10;99.90;;;;;;5025670;28;19927;-72
2023/07/02 02:41:27;;;;;;;;;;;16.10;99.90;;;;;;5003894;28;19980;-73
2023/07/02 02:43:52;;;;;;;;;;;16.10;99.90;;;;;;5052547;28;20417;-73
2023/07/02 02:46:22;;;;;;;;;;;16.20;99.90;;;;;;5019207;28;19925;-73
2023/07/02 02:48:47;;;;;;;;;;;16.20;99.90;;;;;;5005949;28;20439;-73
2023/07/02 02:51:13;;;;;;;;;;;16.20;99.90;;;;;;5003582;28;20149;-73
2023/07/02 02:53:42;;;;;;;;;;;16.20;99.90;;;;;;5006887;28;19927;-73
2023/07/02 02:56:13;;;;;;;;;;;16.20;99.90;;;;;;5008036;28;19936;-73
2023/07/02 02:58:39;;;;;;;;;;;16.20;99.90;;;;;;5003228;28;19920;-74
2023/07/02 03:01:10;;;;;;;;;;;16.20;99.90;;;;;;5010463;28;20367;-73
2023/07/02 03:03:39;;;;;;;;;;;16.20;99.90;;;;;;5052511;28;20383;-74
2023/07/02 03:06:05;;;;;;;;;;;16.20;99.90;;;;;;5035119;28;19932;-73
2023/07/02 03:08:31;;;;;;;;;;;16.20;99.90;;;;;;5036270;28;19939;-73
2023/07/02 03:11:04;;;;;;;;;;;16.20;99.90;;;;;;5008922;28;19932;-73
2023/07/02 03:13:35;;;;;;;;;;;16.20;99.90;;;;;;5032605;28;19983;-73
2023/07/02 03:16:01;;;;;;;;;;;16.20;99.90;;;;;;5019703;28;20631;-72
2023/07/02 03:18:27;;;;;;;;;;;16.20;99.90;;;;;;5002837;28;19971;-72
2023/07/02 03:20:52;;;;;;;;;;;16.20;99.90;;;;;;5025387;28;19925;-74
2023/07/02 03:23:18;;;;;;;;;;;16.20;99.90;;;;;;5024342;28;20382;-73
2023/07/02 03:25:44;;;;;;;;;;;16.10;99.90;;;;;;5023989;28;19932;-74
2023/07/02 03:28:11;;;;;;;;;;;16.00;99.90;;;;;;5026721;28;20327;-74
2023/07/02 03:30:36;;;;;;;;;;;16.10;99.90;;;;;;5029240;28;19994;-74
2023/07/02 03:33:02;;;;;;;;;;;16.00;99.90;;;;;;5007964;28;20662;-73
2023/07/02 03:35:27;;;;;;;;;;;15.90;99.90;;;;;;5039909;28;19971;-73
2023/07/02 03:37:53;;;;;;;;;;;15.90;99.90;;;;;;5020399;28;20422;-73
2023/07/02 03:40:19;;;;;;;;;;;15.90;99.90;;;;;;5007689;28;19920;-75
2023/07/02 03:42:44;;;;;;;;;;;15.90;99.90;;;;;;5028589;28;19987;-74
2023/07/02 03:45:11;;;;;;;;;;;15.80;99.90;;;;;;5022677;28;19932;-74
2023/07/02 03:47:37;;;;;;;;;;;15.80;99.90;;;;;;5007684;28;19928;-73
2023/07/02 03:50:03;;;;;;;;;;;15.80;99.90;;;;;;5029401;28;20491;-73
2023/07/02 03:52:43;;;;;;;;;;;15.80;99.90;;;;;;5026096;28;19931;-73
2023/07/02 03:55:25;;;;;;;;;;;15.70;99.90;;;;;;5040523;28;19986;-73
2023/07/02 03:57:56;;;;;;;;;;;15.80;99.90;;;;;;5037786;28;20271;-73
2023/07/02 04:00:22;;;;;;;;;;;15.80;99.90;;;;;;5007003;28;19921;-72
2023/07/02 04:02:48;;;;;;;;;;;15.80;99.90;;;;;;5022458;28;19931;-72
2023/07/02 04:05:13;;;;;;;;;;;15.90;99.90;;;;;;5006516;28;19925;-74
2023/07/02 04:07:46;;;;;;;;;;;15.90;99.90;;;;;;5038441;28;20406;-74
2023/07/02 04:10:11;;;;;;;;;;;15.90;99.90;;;;;;5028110;28;19927;-72
2023/07/02 04:12:40;;;;;;;;;;;16.00;99.90;;;;;;5007234;28;19984;-73
2023/07/02 04:15:12;;;;;;;;;;;16.00;99.90;;;;;;5029020;28;19927;-75
2023/07/02 04:17:37;;;;;;;;;;;16.00;99.90;;;;;;5012518;28;20294;-73
2023/07/02 04:20:03;;;;;;;;;;;16.00;99.90;;;;;;5027897;28;20023;-73
2023/07/02 04:22:29;;;;;;;;;;;16.00;99.90;;;;;;5037321;28;19924;-73
2023/07/02 04:24:57;;;;;;;;;;;16.00;99.90;;;;;;5039356;28;19925;-72
2023/07/02 04:27:23;;;;;;;;;;;16.00;99.90;;;;;;5004119;28;19925;-73
2023/07/02 04:29:49;;;;;;;;;;;16.00;99.90;;;;;;5044760;28;19931;-73
2023/07/02 04:32:14;;;;;;;;;;;16.00;99.90;;;;;;5025667;28;19936;-73
2023/07/02 04:34:41;;;;;;;;;;;16.00;99.90;;;;;;5027465;28;19924;-73
2023/07/02 04:37:09;;;;;;;;;;;16.00;99.90;;;;;;5043159;28;19927;-73
2023/07/02 04:39:34;;;;;;;;;;;16.10;99.90;;;;;;5026894;28;20375;-72
2023/07/02 04:42:01;;;;;;;;;;;16.10;99.90;;;;;;5003877;28;19966;-72
2023/07/02 04:44:31;;;;;;;;;;;16.10;99.90;;;;;;5021472;28;20039;-73
2023/07/02 04:47:00;;;;;;;;;;;16.10;99.90;;;;;;5027979;28;19971;-72
2023/07/02 04:49:26;;;;;;;;;;;16.10;99.90;;;;;;5038359;28;19925;-73
2023/07/02 04:51:53;;;;;;;;;;;16.00;99.90;;;;;;5028352;28;19924;-73
2023/07/02 04:54:28;;;;;;;;;;;16.10;99.90;;;;;;5037958;28;19921;-73
2023/07/02 04:56:54;;;;;;;;;;;16.10;99.90;;;;;;5028754;28;20293;-73
2023/07/02 04:59:20;;;;;;;;;;;16.10;99.90;;;;;;5022683;28;20036;-72
2023/07/02 05:01:46;;;;;;;;;;;16.30;99.90;;;;;;5036384;28;20378;-73
2023/07/02 05:04:19;;;;;;;;;;;16.00;99.90;;;;;;5027198;28;19932;-73
2023/07/02 05:06:47;;;;;;;;;;;16.00;99.90;;;;;;5027465;28;20330;-69
2023/07/02 05:09:18;;;;;;;;;;;15.90;99.90;;;;;;5036641;28;19924;-72
2023/07/02 05:11:52;;;;;;;;;;;16.00;99.90;;;;;;5006441;28;19921;-70
2023/07/02 05:14:19;;;;;;;;;;;16.00;99.90;;;;;;5003593;28;20386;-70
2023/07/02 05:16:45;;;;;;;;;;;16.00;99.90;;;;;;5021410;28;19925;-73
2023/07/02 05:19:19;;;;;;;;;;;16.10;99.90;;;;;;5050497;28;20003;-73
2023/07/02 05:21:46;;;;;;;;;;;16.20;99.90;;;;;;5017788;28;20410;-71
2023/07/02 05:24:20;;;;;;;;;;;16.30;99.90;;;;;;5019276;28;20402;-72
2023/07/02 05:26:46;;;;;;;;;;;16.30;99.90;;;;;;5022162;28;19929;-71
2023/07/02 05:29:16;;;;;;;;;;;15.00;99.90;;;;;;5049543;28;20582;-70
2023/07/02 05:31:42;;;;;;;;;;;16.20;99.90;;;;;;5035438;28;19921;-71
2023/07/02 05:34:10;;;;;;;;;;;16.10;99.90;;;;;;5023819;28;19925;-71
2023/07/02 05:36:36;;;;;;;;;;;16.00;99.90;;;;;;5035296;28;19935;-71
2023/07/02 05:39:01;;;;;;;;;;;16.00;99.90;;;;;;5033566;28;19921;-70
2023/07/02 05:41:30;;;;;;;;;;;16.10;99.90;;;;;;5005315;28;20032;-72
2023/07/02 05:44:01;;;;;;;;;;;16.20;99.90;;;;;;5007291;28;20295;-71
2023/07/02 05:46:34;;;;;;;;;;;16.20;99.90;;;;;;5018587;28;19921;-71
2023/07/02 05:49:01;;;;;;;;;;;16.10;99.90;;;;;;5038364;28;19971;-71
2023/07/02 05:51:30;;;;;;;;;;;16.30;99.90;;;;;;5020393;28;19929;-73
2023/07/02 05:54:00;;;;;;;;;;;16.30;99.90;;;;;;5036222;28;20496;-74
2023/07/02 05:56:26;;;;;;;;;;;16.40;99.90;;;;;;5020395;28;19986;-72
2023/07/02 05:58:51;;;;;;;;;;;16.40;99.90;;;;;;5022540;28;19936;-70
2023/07/02 06:01:21;;;;;;;;;;;16.50;99.90;;;;;;5034567;28;20310;-70
2023/07/02 06:03:54;;;;;;;;;;;16.50;99.90;;;;;;5023440;28;19944;-71
2023/07/02 06:06:22;;;;;;;;;;;16.60;99.90;;;;;;5024637;28;20591;-72
2023/07/02 06:09:01;;;;;;;;;;;16.70;99.90;;;;;;5037679;28;20010;-71
2023/07/02 06:11:31;;;;;;;;;;;16.80;99.90;;;;;;5019224;28;19929;-71
2023/07/02 06:14:00;;;;;;;;;;;16.80;99.90;;;;;;5049555;28;20311;-71
2023/07/02 06:16:31;;;;;;;;;;;16.80;99.90;;;;;;5006825;28;19972;-71
2023/07/02 06:18:58;;;;;;;;;;;16.90;99.90;;;;;;5006561;28;19925;-71
2023/07/02 06:21:29;;;;;;;;;;;16.90;99.90;;;;;;5012634;28;20331;-71
2023/07/02 06:23:56;;;;;;;;;;;16.90;99.90;;;;;;5019567;28;19925;-70
2023/07/02 06:26:21;;;;;;;;;;;17.00;99.90;;;;;;5010281;28;19931;-71
2023/07/02 06:28:48;;;;;;;;;;;16.90;99.90;;;;;;4978208;28;19921;-73
2023/07/02 06:31:19;;;;;;;;;;;16.90;99.90;;;;;;4993564;28;19925;-71
2023/07/02 06:33:46;;;;;;;;;;;16.90;99.90;;;;;;4992866;28;19929;-71
2023/07/02 06:36:19;;;;;;;;;;;16.90;99.90;;;;;;4976027;28;19941;-71
2023/07/02 06:38:44;;;;;;;;;;;17.00;99.90;;;;;;4981631;28;19922;-71
2023/07/02 06:41:12;;;;;;;;;;;17.20;99.90;;;;;;4977120;28;20729;-71
2023/07/02 06:43:48;;;;;;;;;;;17.20;99.90;;;;;;4994630;28;19972;-71
2023/07/02 06:46:14;;;;;;;;;;;17.10;99.90;;;;;;4980154;28;19925;-72
2023/07/02 06:48:52;;;;;;;;;;;17.20;99.90;;;;;;4965858;28;20461;-70
2023/07/02 06:51:18;;;;;;;;;;;17.30;99.90;;;;;;4962581;28;19929;-70
2023/07/02 06:53:45;;;;;;;;;;;17.40;99.90;;;;;;4962654;28;19936;-71
2023/07/02 06:56:12;;;;;;;;;;;17.60;99.90;;;;;;4976158;28;19974;-70
2023/07/02 06:58:42;;;;;;;;;;;17.70;99.90;;;;;;4989056;28;19924;-70
2023/07/02 07:01:21;;;;;;;;;;;17.70;99.90;;;;;;5025302;28;19932;-73
2023/07/02 07:03:48;;;;;;;;;;;17.60;99.90;;;;;;5028089;28;20478;-70
2023/07/02 07:06:18;;;;;;;;;;;17.50;99.90;;;;;;5009996;28;19962;-70
2023/07/02 07:09:02;;;;;;;;;;;17.30;99.90;;;;;;5054586;28;20001;-73
2023/07/02 07:11:35;;;;;;;;;;;17.20;99.90;;;;;;5028349;28;19928;-70
2023/07/02 07:14:00;;;;;;;;;;;17.20;99.90;;;;;;5023741;28;19948;-71
2023/07/02 07:16:26;;;;;;;;;;;17.10;99.90;;;;;;5024251;28;20270;-70
2023/07/02 07:18:54;;;;;;;;;;;17.20;99.90;;;;;;5030035;28;19932;-70
2023/07/02 07:21:25;;;;;;;;;;;17.10;99.90;;;;;;5045660;28;19928;-70
2023/07/02 07:23:58;;;;;;;;;;;17.00;99.90;;;;;;5028838;28;19925;-72
2023/07/02 07:26:24;;;;;;;;;;;17.00;99.90;;;;;;5030669;28;19974;-69
2023/07/02 07:28:50;;;;;;;;;;;16.90;99.90;;;;;;5044718;28;19925;-70
2023/07/02 07:31:18;;;;;;;;;;;17.00;99.90;;;;;;5040458;28;19929;-70
2023/07/02 07:36:54;;;;;;;;;;;17.20;99.90;;;;;;5028629;28;19925;-71
2023/07/02 07:39:28;;;;;;;;;;;17.50;99.90;;;;;;5042114;28;19990;-71
2023/07/02 07:41:55;;;;;;;;;;;17.70;99.90;;;;;;5022051;28;20417;-70
2023/07/02 07:44:30;;;;;;;;;;;17.80;99.90;;;;;;5035917;28;20035;-74
2023/07/02 07:47:07;;;;;;;;;;;17.90;99.90;;;;;;5000475;28;19925;-70
2023/07/02 07:49:34;;;;;;;;;;;17.90;99.90;;;;;;5025420;28;19931;-71
2023/07/02 07:52:16;;;;;;;;;;;17.80;99.90;;;;;;5020418;28;19948;-71
2023/07/02 07:54:41;;;;;;;;;;;17.70;99.90;;;;;;5039387;28;19940;-71
2023/07/02 07:57:07;;;;;;;;;;;17.60;99.90;;;;;;5035731;28;19936;-70
2023/07/02 07:59:33;;;;;;;;;;;17.60;99.90;;;;;;5020147;28;20015;-73
2023/07/02 08:01:58;;;;;;;;;;;17.60;99.90;;;;;;5038239;28;19921;-73
2023/07/02 08:04:42;;;;;;;;;;;17.50;99.90;;;;;;5010528;28;20062;-73
2023/07/02 08:07:09;;;;;;;;;;;17.40;99.90;;;;;;5031840;28;19933;-72
2023/07/02 08:09:34;;;;;;;;;;;17.50;99.90;;;;;;5034415;28;19932;-72
2023/07/02 08:12:03;;;;;;;;;;;17.60;99.90;;;;;;5009591;28;19921;-72
2023/07/02 08:14:43;;;;;;;;;;;17.90;99.90;;;;;;5024249;28;19924;-75
2023/07/02 08:17:12;;;;;;;;;;;18.20;99.90;;;;;;5004905;28;19925;-72
2023/07/02 08:19:38;;;;;;;;;;;18.50;99.90;;;;;;4991364;28;19987;-72
2023/07/02 08:22:04;;;;;;;;;;;18.80;99.90;;;;;;4986333;28;19951;-73
2023/07/02 08:24:37;;;;;;;;;;;19.00;99.90;;;;;;4984452;28;19924;-73
2023/07/02 08:27:13;;;;;;;;;;;19.30;99.90;;;;;;4992506;28;19971;-72
2023/07/02 08:29:46;;;;;;;;;;;19.40;99.90;;;;;;5007849;28;19924;-73
2023/07/02 08:32:15;;;;;;;;;;;19.50;99.90;;;;;;5020695;28;19924;-71
2023/07/02 08:34:41;;;;;;;;;;;19.70;99.90;;;;;;4998749;28;20423;-72
2023/07/02 08:37:07;;;;;;;;;;;20.00;99.90;;;;;;4992581;28;19929;-72
2023/07/02 08:39:35;;;;;;;;;;;20.00;99.90;;;;;;5001796;28;19925;-74
2023/07/02 08:42:01;;;;;;;;;;;19.80;99.90;;;;;;4970427;28;20391;-75
2023/07/02 08:44:27;;;;;;;;;;;19.70;99.90;;;;;;5002978;28;20033;-73
2023/07/02 08:47:03;;;;;;;;;;;19.60;99.90;;;;;;5020530;28;20010;-72
2023/07/02 08:49:32;;;;;;;;;;;19.50;99.90;;;;;;5019889;28;19925;-72
2023/07/02 08:51:58;;;;;;;;;;;19.60;99.90;;;;;;5022681;28;19968;-73
2023/07/02 08:54:24;;;;;;;;;;;19.80;99.90;;;;;;5023471;28;20023;-72
2023/07/02 08:56:56;;;;;;;;;;;20.10;99.90;;;;;;5035674;28;20444;-73
2023/07/02 08:59:22;;;;;;;;;;;20.40;99.90;;;;;;5023371;28;20359;-72
2023/07/02 09:01:51;;;;;;;;;;;20.50;99.90;;;;;;5002887;28;20019;-73
2023/07/02 09:04:17;;;;;;;;;;;20.50;99.90;;;;;;5005110;28;19934;-73
2023/07/02 09:06:44;;;;;;;;;;;20.40;99.90;;;;;;5034553;28;20282;-73
2023/07/02 09:09:10;;;;;;;;;;;20.20;99.90;;;;;;5005763;28;20290;-72
2023/07/02 09:11:50;;;;;;;;;;;20.50;99.90;;;;;;5036407;28;20046;-74
2023/07/02 09:14:33;;;;;;;;;;;20.70;99.90;;;;;;5014636;28;19947;-73
2023/07/02 09:17:32;;;;;;;;;;;20.50;99.90;;;;;;5037614;28;19932;-73
2023/07/02 09:20:24;;;;;;;;;;;20.50;99.90;;;;;;5034514;28;19932;-74
2023/07/02 09:26:25;;;;;;;;;;;19.50;99.90;;;;;;4996962;28;19961;-73
2023/07/02 09:29:42;;;;;;;;;;;19.40;99.90;;;;;;4996684;28;19975;-74
2023/07/02 09:35:45;;;;;;;;;;;20.10;99.90;;;;;;4994159;28;19926;-72
2023/07/02 09:38:47;;;;;;;;;;;20.20;99.90;;;;;;4991767;28;19921;-73
2023/07/02 09:41:28;;;;;;;;;;;20.50;99.90;;;;;;4973386;28;20040;-72
2023/07/02 09:44:47;;;;;;;;;;;20.60;99.90;;;;;;4971072;28;19925;-73
2023/07/02 09:48:17;;;;;;;;;;;20.50;99.90;;;;;;4969342;28;20016;-73
2023/07/02 09:51:21;;;;;;;;;;;20.50;99.90;;;;;;4973964;28;19924;-73
2023/07/02 09:54:23;;;;;;;;;;;20.10;99.90;;;;;;4966601;28;19924;-74
2023/07/02 09:57:20;;;;;;;;;;;19.80;99.90;;;;;;4973502;28;19968;-73
2023/07/02 10:06:51;;;;;;;;;;;19.70;99.90;;;;;;4972077;28;20409;-72
2023/07/02 10:10:00;;;;;;;;;;;19.40;99.90;;;;;;4959788;28;19920;-73
2023/07/02 10:13:22;;;;;;;;;;;19.00;99.90;;;;;;4954395;28;20280;-72
2023/07/02 10:19:24;;;;;;;;;;;19.30;99.90;;;;;;4984955;28;19925;-74
2023/07/02 10:22:38;;;;;;;;;;;19.40;99.90;;;;;;4983940;28;20404;-72
2023/07/02 10:25:05;;;;;;;;;;;19.80;99.90;;;;;;4978935;28;19985;-73
2023/07/02 10:28:09;;;;;;;;;;;20.10;99.90;;;;;;4986545;28;19956;-73
2023/07/02 10:30:37;;;;;;;;;;;20.30;99.90;;;;;;4986460;28;19932;-73
2023/07/02 10:36:47;;;;;;;;;;;20.60;99.90;;;;;;4913105;29;19969;-73
2023/07/02 10:40:02;;;;;;;;;;;20.60;99.90;;;;;;4962585;28;19929;-74
2023/07/02 10:43:16;;;;;;;;;;;20.90;99.90;;;;;;4962527;28;19980;-75
2023/07/02 10:45:42;;;;;;;;;;;21.10;99.90;;;;;;4960449;28;19930;-71
2023/07/02 10:48:08;;;;;;;;;;;21.30;99.90;;;;;;4986604;28;19945;-71
2023/07/02 10:50:34;;;;;;;;;;;21.50;99.90;;;;;;4975943;28;19929;-72
2023/07/02 10:53:02;;;;;;;;;;;21.50;99.90;;;;;;4961857;28;19948;-75
2023/07/02 10:55:28;;;;;;;;;;;21.70;99.90;;;;;;4961738;28;19924;-72
2023/07/02 10:58:05;;;;;;;;;;;21.80;99.90;;;;;;5008884;28;19925;-73
2023/07/02 11:00:32;;;;;;;;;;;22.00;99.90;;;;;;5020610;28;19929;-74
2023/07/02 11:02:59;;;;;;;;;;;21.90;99.80;;;;;;5002094;28;20011;-72
2023/07/02 11:05:31;;;;;;;;;;;22.00;99.90;;;;;;5020921;28;19955;-73
2023/07/02 11:08:07;;;;;;;;;;;22.00;99.90;;;;;;5018173;28;19924;-73
2023/07/02 11:10:34;;;;;;;;;;;22.00;98.50;;;;;;4973200;28;19992;-73
2023/07/02 11:13:09;;;;;;;;;;;22.10;97.30;;;;;;4976026;28;20019;-76
2023/07/02 11:15:35;;;;;;;;;;;22.00;98.00;;;;;;4990909;28;19926;-73
2023/07/02 11:18:10;;;;;;;;;;;21.90;98.40;;;;;;4955138;28;20024;-71
2023/07/02 11:20:44;;;;;;;;;;;21.90;98.20;;;;;;4971698;28;19980;-70
2023/07/02 11:30:08;;;;;;;;;;;21.90;97.50;;;;;;4962575;28;19922;-74
2023/07/02 11:33:01;;;;;;;;;;;21.90;97.30;;;;;;4973268;28;20398;-72
2023/07/02 11:39:16;;;;;;;;;;;21.60;97.30;;;;;;4974076;28;19980;-74
2023/07/02 11:42:25;;;;;;;;;;;21.00;98.30;;;;;;5017668;28;19920;-74
2023/07/02 11:44:54;;;;;;;;;;;20.80;99.40;;;;;;5034470;28;19932;-74
2023/07/02 11:48:15;;;;;;;;;;;21.10;99.10;;;;;;5020276;28;20295;-74
2023/07/02 11:53:49;;;;;;;;;;;21.70;98.60;;;;;;5024575;28;19929;-76
2023/07/02 11:56:51;;;;;;;;;;;21.80;98.50;;;;;;5038924;28;19994;-73
2023/07/02 11:59:38;;;;;;;;;;;21.60;98.20;;;;;;5006366;28;19932;-73
2023/07/02 12:02:44;;;;;;;;;;;21.80;98.00;;;;;;4995035;28;19928;-73
2023/07/02 12:05:41;;;;;;;;;;;21.70;98.00;;;;;;5017332;28;19952;-74
2023/07/02 12:09:05;;;;;;;;;;;21.80;97.30;;;;;;5018065;28;20517;-74
2023/07/02 12:11:51;;;;;;;;;;;22.00;96.70;;;;;;5017025;28;19939;-72
2023/07/02 12:14:44;;;;;;;;;;;21.90;96.90;;;;;;5017361;28;19929;-75
2023/07/02 12:17:41;;;;;;;;;;;21.70;97.70;;;;;;5005173;28;20662;-74
2023/07/02 12:24:08;;;;;;;;;;;21.80;97.10;;;;;;4969393;28;19979;-72
2023/07/02 12:26:37;;;;;;;;;;;21.60;96.50;;;;;;5019514;28;20083;-72
2023/07/02 12:29:21;;;;;;;;;;;21.60;96.90;;;;;;5021315;28;19925;-74
2023/07/02 12:32:06;;;;;;;;;;;21.10;97.00;;;;;;5009787;28;20011;-72
2023/07/02 12:34:43;;;;;;;;;;;20.70;98.20;;;;;;5018379;28;19935;-73
2023/07/02 12:37:30;;;;;;;;;;;20.40;99.20;;;;;;5035845;28;19918;-77
2023/07/02 12:40:34;;;;;;;;;;;20.10;99.00;;;;;;4991823;28;19921;-75
2023/07/02 12:44:00;;;;;;;;;;;19.90;99.50;;;;;;5039809;28;19927;-73
2023/07/02 12:47:35;;;;;;;;;;;20.00;99.40;;;;;;5039434;28;19921;-73
2023/07/02 12:53:24;;;;;;;;;;;20.00;99.90;;;;;;5029146;28;19923;-74
2023/07/02 12:56:19;;;;;;;;;;;19.80;99.70;;;;;;5040760;28;19979;-73
2023/07/02 12:59:35;;;;;;;;;;;19.90;99.90;;;;;;5039424;28;19920;-72
2023/07/02 13:02:27;;;;;;;;;;;20.30;99.90;;;;;;5037160;28;19932;-74
2023/07/02 13:05:00;;;;;;;;;;;20.70;99.70;;;;;;5039980;28;19927;-72
2023/07/02 13:07:36;;;;;;;;;;;21.00;98.80;;;;;;5020863;28;19931;-74
2023/07/02 13:10:57;;;;;;;;;;;20.90;98.30;;;;;;5016891;28;19967;-75
2023/07/02 13:16:24;;;;;;;;;;;21.10;98.90;;;;;;5038845;28;20101;-76
2023/07/02 13:19:08;;;;;;;;;;;20.70;97.80;;;;;;4984825;28;19924;-74
2023/07/02 13:21:58;;;;;;;;;;;20.20;98.30;;;;;;5005398;28;20028;-75
2023/07/02 13:24:45;;;;;;;;;;;19.80;99.20;;;;;;5021880;28;20197;-73
2023/07/02 13:27:47;;;;;;;;;;;19.40;99.90;;;;;;5016135;28;19929;-74
2023/07/02 13:31:23;;;;;;;;;;;19.10;99.90;;;;;;5032248;28;20298;-73
2023/07/02 13:34:17;;;;;;;;;;;19.10;99.90;;;;;;5017714;28;19944;-74
2023/07/02 13:37:06;;;;;;;;;;;19.20;99.90;;;;;;4998252;28;20027;-73
2023/07/02 13:39:42;;;;;;;;;;;19.30;99.90;;;;;;5033225;28;19935;-74
2023/07/02 13:42:17;;;;;;;;;;;19.60;99.90;;;;;;5000918;28;19960;-73
2023/07/02 13:44:51;;;;;;;;;;;20.10;99.50;;;;;;5010864;28;19928;-74
2023/07/02 13:47:37;;;;;;;;;;;20.20;98.80;;;;;;5018278;28;19987;-73
2023/07/02 13:50:10;;;;;;;;;;;20.50;98.30;;;;;;5014599;28;20063;-74
2023/07/02 13:52:58;;;;;;;;;;;20.40;98.60;;;;;;5031130;28;20018;-73
2023/07/02 13:55:43;;;;;;;;;;;20.20;98.10;;;;;;5032514;28;19927;-75
2023/07/02 13:58:22;;;;;;;;;;;20.20;97.90;;;;;;5005208;28;19932;-72
2023/07/02 14:01:28;;;;;;;;;;;20.10;97.90;;;;;;5022932;28;19994;-73
2023/07/02 14:03:54;;;;;;;;;;;20.30;97.80;;;;;;5020097;28;20486;-75
2023/07/02 14:06:20;;;;;;;;;;;20.30;97.20;;;;;;5017995;28;20364;-73
2023/07/02 14:08:45;;;;;;;;;;;20.70;96.70;;;;;;5018250;28;20197;-73
2023/07/02 14:11:11;;;;;;;;;;;20.90;96.00;;;;;;5001621;28;19920;-73
2023/07/02 14:13:36;;;;;;;;;;;21.00;96.30;;;;;;5018394;28;19925;-72
2023/07/02 14:16:02;;;;;;;;;;;20.90;96.00;;;;;;5002061;28;20859;-75
2023/07/02 14:18:28;;;;;;;;;;;20.80;95.80;;;;;;5015990;28;19948;-75
2023/07/02 14:20:53;;;;;;;;;;;20.70;95.20;;;;;;5016296;28;20294;-73
2023/07/02 14:23:19;;;;;;;;;;;20.50;95.40;;;;;;4998681;28;19937;-72
2023/07/02 14:25:45;;;;;;;;;;;20.30;95.30;;;;;;5019255;28;20298;-72
2023/07/02 14:28:10;;;;;;;;;;;20.00;95.80;;;;;;5019152;28;20115;-71
2023/07/02 14:30:36;;;;;;;;;;;19.90;96.50;;;;;;5030102;28;19929;-75
2023/07/02 14:33:03;;;;;;;;;;;19.30;96.50;;;;;;5016630;28;19928;-73
2023/07/02 14:35:30;;;;;;;;;;;19.40;97.00;;;;;;5002847;28;19928;-74
2023/07/02 14:37:56;;;;;;;;;;;19.20;97.30;;;;;;5018276;28;19928;-72
2023/07/02 14:40:22;;;;;;;;;;;19.00;97.70;;;;;;5014797;28;19929;-74
2023/07/02 14:42:48;;;;;;;;;;;18.90;98.70;;;;;;5016109;28;19931;-73
2023/07/02 14:45:13;;;;;;;;;;;18.90;99.10;;;;;;5019149;28;20055;-74
2023/07/02 14:47:40;;;;;;;;;;;18.80;99.90;;;;;;5014612;28;19929;-72
2023/07/02 14:50:06;;;;;;;;;;;18.70;99.90;;;;;;5000103;28;19939;-72
2023/07/02 14:52:35;;;;;;;;;;;18.70;99.90;;;;;;5014638;28;20019;-73
2023/07/02 14:55:01;;;;;;;;;;;18.60;99.90;;;;;;5012175;28;19929;-73
2023/07/02 14:57:27;;;;;;;;;;;18.50;99.90;;;;;;5013601;28;19925;-72
2023/07/02 14:59:53;;;;;;;;;;;18.40;99.90;;;;;;5017303;28;20430;-74
2023/07/02 15:02:27;;;;;;;;;;;18.40;99.90;;;;;;5032363;28;19925;-74
2023/07/02 15:04:53;;;;;;;;;;;18.30;99.90;;;;;;4998033;28;19928;-72
2023/07/02 15:07:19;;;;;;;;;;;18.30;99.90;;;;;;5024013;28;19929;-73
2023/07/02 15:09:49;;;;;;;;;;;18.30;99.90;;;;;;5031791;28;19977;-72
2023/07/02 15:12:28;;;;;;;;;;;18.30;99.90;;;;;;5026096;28;19940;-73
2023/07/02 15:15:22;;;;;;;;;;;18.20;99.90;;;;;;4997253;28;19964;-73
2023/07/02 15:17:51;;;;;;;;;;;18.20;99.90;;;;;;5016954;28;19944;-76
2023/07/02 15:20:32;;;;;;;;;;;18.20;99.90;;;;;;5011505;28;20003;-73
2023/07/02 15:23:24;;;;;;;;;;;18.30;99.90;;;;;;5030624;28;19962;-75
2023/07/02 15:26:14;;;;;;;;;;;18.30;99.90;;;;;;5023389;28;20248;-73
2023/07/02 15:29:18;;;;;;;;;;;18.30;99.90;;;;;;5020837;28;19928;-76
2023/07/02 15:32:39;;;;;;;;;;;18.20;99.90;;;;;;5002467;28;20341;-73
2023/07/02 15:35:34;;;;;;;;;;;18.20;99.90;;;;;;5018644;28;19922;-73
2023/07/02 15:38:33;;;;;;;;;;;18.10;99.90;;;;;;5033826;28;19928;-76
2023/07/02 15:41:29;;;;;;;;;;;18.10;99.90;;;;;;4971943;28;20384;-72
2023/07/02 15:44:02;;;;;;;;;;;18.10;99.90;;;;;;5042486;28;19924;-72